Time;durP1;ratioP1;P1;durP2;ratioP2;P2;SDS_P1;SDS_P2;PMS_P1;PMS_P2;Temp;Humidity;BMP_temperature;BMP_pressure;BME280_temperature;BME280_humidity;BME280_pressure;Samples;Min_cycle;Max_cycle;Signal;HPM_P1;HPM_P2
2023/06/13 00:00:41;;;;;;;0.45;0.40;;;17.70;99.90;;;;;;5031210;28;20026;-52
2023/06/13 00:03:09;;;;;;;1.13;0.68;;;17.60;99.90;;;;;;5030922;28;20113;-52
2023/06/13 00:05:34;;;;;;;0.50;0.50;;;17.60;99.90;;;;;;5031050;28;20048;-52
2023/06/13 00:08:00;;;;;;;0.40;0.40;;;18.70;99.90;;;;;;5030652;28;20430;-52
2023/06/13 00:10:26;;;;;;;0.55;0.55;;;16.00;99.90;;;;;;5030793;28;20436;-50
2023/06/13 00:12:51;;;;;;;0.73;0.50;;;17.30;99.90;;;;;;5030867;28;20032;-50
2023/06/13 00:15:18;;;;;;;0.43;0.43;;;17.20;99.90;;;;;;5030890;28;20017;-55
2023/06/13 00:17:48;;;;;;;0.85;0.43;;;17.10;99.90;;;;;;5030823;28;20095;-54
2023/06/13 00:20:13;;;;;;;0.65;0.65;;;17.00;99.90;;;;;;5030797;28;20477;-54
2023/06/13 00:22:39;;;;;;;1.02;0.75;;;17.00;99.90;;;;;;5013306;28;20076;-54
2023/06/13 00:25:05;;;;;;;0.63;0.52;;;16.80;99.90;;;;;;5030702;28;20030;-50
2023/06/13 00:27:32;;;;;;;0.75;0.63;;;16.70;99.90;;;;;;5030666;28;20029;-51
2023/06/13 00:29:58;;;;;;;0.60;0.60;;;16.50;99.90;;;;;;5030831;28;20029;-53
2023/06/13 00:32:23;;;;;;;0.57;0.35;;;16.50;99.90;;;;;;5030603;28;20441;-51
2023/06/13 00:34:49;;;;;;;0.47;0.47;;;16.40;99.90;;;;;;5030623;28;20044;-53
2023/06/13 00:37:16;;;;;;;0.45;0.45;;;16.50;99.90;;;;;;5030870;28;20045;-52
2023/06/13 00:39:42;;;;;;;0.73;0.60;;;16.40;99.90;;;;;;5030573;28;20106;-49
2023/06/13 00:42:08;;;;;;;0.50;0.43;;;16.40;99.90;;;;;;5030282;28;20068;-54
2023/06/13 00:44:34;;;;;;;0.50;0.50;;;16.30;99.90;;;;;;5026586;28;20044;-52
2023/06/13 00:47:02;;;;;;;1.55;1.25;;;16.90;99.90;;;;;;5030555;28;20100;-55
2023/06/13 00:49:28;;;;;;;0.50;0.47;;;16.30;99.90;;;;;;5030670;28;20029;-51
2023/06/13 00:51:58;;;;;;;0.60;0.52;;;16.30;99.90;;;;;;5030758;28;20030;-51
2023/06/13 00:54:24;;;;;;;0.65;0.63;;;16.40;99.90;;;;;;5030555;28;20025;-53
2023/06/13 00:56:50;;;;;;;0.25;0.25;;;16.40;99.90;;;;;;5030120;28;20041;-54
2023/06/13 00:59:17;;;;;;;0.50;0.50;;;16.40;99.90;;;;;;5030351;28;20095;-54
2023/06/13 01:01:43;;;;;;;0.80;0.65;;;16.40;99.90;;;;;;5012575;28;20458;-52
2023/06/13 01:04:09;;;;;;;1.02;0.85;;;16.30;99.90;;;;;;5030462;28;20097;-52
2023/06/13 01:06:40;;;;;;;1.98;0.57;;;16.30;99.90;;;;;;5030321;28;20041;-50
2023/06/13 01:09:08;;;;;;;0.65;0.65;;;16.30;99.90;;;;;;5030419;28;20033;-50
2023/06/13 01:11:48;;;;;;;0.60;0.50;;;16.30;99.90;;;;;;5029431;28;20026;-51
2023/06/13 01:14:32;;;;;;;0.65;0.32;;;16.30;99.90;;;;;;5029844;28;20026;-52
2023/06/13 01:17:07;;;;;;;1.15;0.77;;;17.10;99.90;;;;;;5029996;28;20029;-56
2023/06/13 01:19:40;;;;;;;0.68;0.50;;;16.30;99.90;;;;;;5031228;28;20049;-49
2023/06/13 01:22:42;;;;;;;0.57;0.57;;;16.30;99.90;;;;;;5033954;28;20439;-52
2023/06/13 01:25:37;;;;;;;0.68;0.47;;;16.30;99.90;;;;;;5034037;28;20033;-52
2023/06/13 01:28:06;;;;;;;0.43;0.40;;;16.30;99.90;;;;;;5034213;28;20021;-49
2023/06/13 01:30:34;;;;;;;0.30;0.30;;;16.30;99.90;;;;;;5033396;28;20022;-51
2023/06/13 01:33:00;;;;;;;0.80;0.68;;;16.10;99.90;;;;;;5016185;28;20072;-53
2023/06/13 01:35:26;;;;;;;0.50;0.50;;;16.00;99.90;;;;;;5033864;28;20044;-50
2023/06/13 01:37:52;;;;;;;0.45;0.45;;;15.90;99.90;;;;;;5033866;28;20025;-49
2023/06/13 01:40:18;;;;;;;1.05;0.93;;;15.80;99.90;;;;;;5033362;28;20403;-52
2023/06/13 01:42:43;;;;;;;0.30;0.30;;;15.80;99.90;;;;;;5033415;28;20022;-54
2023/06/13 01:45:10;;;;;;;0.57;0.55;;;15.80;99.90;;;;;;5033567;28;20108;-48
2023/06/13 01:48:15;;;;;;;0.20;0.20;;;15.80;99.90;;;;;;5033590;28;20033;-54
2023/06/13 01:50:49;;;;;;;0.30;0.30;;;15.70;99.90;;;;;;4967774;28;20035;-51
2023/06/13 01:53:29;;;;;;;0.77;0.77;;;16.30;99.90;;;;;;5030775;28;20025;-51
2023/06/13 01:56:02;;;;;;;0.50;0.50;;;15.70;99.90;;;;;;5032986;28;20664;-51
2023/06/13 01:58:43;;;;;;;0.30;0.30;;;15.80;99.90;;;;;;5033231;28;20029;-48
2023/06/13 02:01:10;;;;;;;0.30;0.30;;;15.00;99.90;;;;;;5033401;28;20476;-49
2023/06/13 02:03:36;;;;;;;0.50;0.50;;;15.80;99.90;;;;;;5033345;28;20028;-53
2023/06/13 02:06:02;;;;;;;0.65;0.40;;;15.80;99.90;;;;;;5033337;28;20040;-55
2023/06/13 02:08:30;;;;;;;0.38;0.38;;;15.80;99.90;;;;;;5033300;28;20033;-54
2023/06/13 02:10:56;;;;;;;0.32;0.32;;;16.80;99.90;;;;;;5015382;28;20488;-49
2023/06/13 02:13:22;;;;;;;0.47;0.47;;;15.80;99.90;;;;;;5032493;28;20025;-49
2023/06/13 02:15:47;;;;;;;0.47;0.40;;;15.80;99.90;;;;;;5033167;28;20048;-56
2023/06/13 02:18:15;;;;;;;0.40;0.40;;;15.70;99.90;;;;;;5033089;28;20396;-49
2023/06/13 02:20:41;;;;;;;0.57;0.55;;;15.70;99.90;;;;;;5032698;28;20029;-52
2023/06/13 02:23:06;;;;;;;0.28;0.28;;;15.70;99.90;;;;;;5033086;28;20029;-50
2023/06/13 02:25:32;;;;;;;0.63;0.50;;;15.70;99.90;;;;;;5032596;28;20473;-57
2023/06/13 02:27:58;;;;;;;1.08;0.98;;;15.70;99.90;;;;;;5032703;28;20105;-52
2023/06/13 02:30:24;;;;;;;0.50;0.50;;;16.20;99.90;;;;;;5031900;28;20369;-49
2023/06/13 02:32:50;;;;;;;0.35;0.35;;;15.60;99.90;;;;;;5030235;28;20028;-50
2023/06/13 02:35:17;;;;;;;0.40;0.40;;;15.60;99.90;;;;;;5028329;28;20101;-52
2023/06/13 02:37:43;;;;;;;0.50;0.35;;;15.60;99.90;;;;;;5032028;28;20029;-51
2023/06/13 02:40:09;;;;;;;1.58;0.63;;;15.60;99.90;;;;;;5032546;28;20044;-49
2023/06/13 02:42:35;;;;;;;0.35;0.35;;;15.60;99.90;;;;;;5032296;28;20365;-51
2023/06/13 02:45:00;;;;;;;0.32;0.32;;;15.50;99.90;;;;;;5032137;28;20445;-50
2023/06/13 02:47:26;;;;;;;0.40;0.40;;;15.50;99.90;;;;;;5032370;28;20107;-49
2023/06/13 02:49:52;;;;;;;0.63;0.63;;;15.50;99.90;;;;;;5031688;28;20104;-54
2023/06/13 02:52:21;;;;;;;0.52;0.52;;;15.50;99.90;;;;;;5032504;28;20030;-53
2023/06/13 02:54:47;;;;;;;0.47;0.47;;;15.50;99.90;;;;;;5032169;28;20033;-53
2023/06/13 02:57:13;;;;;;;0.30;0.30;;;15.40;99.90;;;;;;5031988;28;20042;-54
2023/06/13 02:59:39;;;;;;;1.30;0.43;;;15.40;99.90;;;;;;5031926;28;20128;-49
2023/06/13 03:02:05;;;;;;;0.47;0.40;;;15.40;99.90;;;;;;5032144;28;20021;-52
2023/06/13 03:04:31;;;;;;;1.17;0.63;;;15.40;99.90;;;;;;5031714;28;20385;-49
2023/06/13 03:06:57;;;;;;;0.57;0.50;;;15.30;99.90;;;;;;5032199;28;20136;-48
2023/06/13 03:09:22;;;;;;;0.25;0.25;;;15.30;99.90;;;;;;5032054;28;20474;-49
2023/06/13 03:11:48;;;;;;;0.57;0.50;;;15.30;99.90;;;;;;5031856;28;20032;-51
2023/06/13 03:14:16;;;;;;;0.90;0.57;;;15.20;99.90;;;;;;5031668;28;20028;-48
2023/06/13 03:16:42;;;;;;;0.45;0.45;;;15.20;99.90;;;;;;5031508;28;20450;-50
2023/06/13 03:19:08;;;;;;;0.25;0.25;;;15.20;99.90;;;;;;5032076;28;20120;-49
2023/06/13 03:21:34;;;;;;;0.65;0.65;;;15.20;99.90;;;;;;5031772;28;20025;-48
2023/06/13 03:24:00;;;;;;;0.40;0.40;;;15.20;99.90;;;;;;5031822;28;20026;-51
2023/06/13 03:26:25;;;;;;;0.50;0.50;;;15.20;99.90;;;;;;5031754;28;20056;-51
2023/06/13 03:28:51;;;;;;;0.40;0.40;;;15.10;99.90;;;;;;5031623;28;20071;-50
2023/06/13 03:31:17;;;;;;;0.68;0.47;;;15.10;99.90;;;;;;5031592;28;20057;-49
2023/06/13 03:33:43;;;;;;;0.95;0.60;;;15.10;99.90;;;;;;5031688;28;20040;-50
2023/06/13 03:36:09;;;;;;;0.30;0.30;;;15.10;99.90;;;;;;5031257;28;20033;-49
2023/06/13 03:38:34;;;;;;;0.28;0.28;;;15.20;99.90;;;;;;5031002;28;20152;-50
2023/06/13 03:41:00;;;;;;;0.40;0.40;;;15.20;99.90;;;;;;5031159;28;20033;-51
2023/06/13 03:43:26;;;;;;;0.30;0.30;;;15.10;99.90;;;;;;5030488;28;20037;-52
2023/06/13 03:45:53;;;;;;;0.20;0.20;;;15.20;99.90;;;;;;5031078;28;20076;-50
2023/06/13 03:48:18;;;;;;;0.57;0.57;;;15.30;99.90;;;;;;5030507;28;20056;-47
2023/06/13 03:50:44;;;;;;;0.28;0.28;;;15.30;99.90;;;;;;5021432;28;20373;-49
2023/06/13 03:53:10;;;;;;;0.30;0.20;;;15.40;99.90;;;;;;5017806;28;20033;-49
2023/06/13 03:55:36;;;;;;;0.40;0.40;;;15.40;99.90;;;;;;5023003;28;20025;-52
2023/06/13 03:58:02;;;;;;;1.13;0.68;;;15.50;99.90;;;;;;5022086;28;20034;-51
2023/06/13 04:00:29;;;;;;;0.95;0.55;;;15.60;99.90;;;;;;5024165;28;20037;-49
2023/06/13 04:02:55;;;;;;;0.30;0.30;;;15.60;99.90;;;;;;5030441;28;20022;-49
2023/06/13 04:05:21;;;;;;;0.40;0.40;;;15.70;99.90;;;;;;5030761;28;20040;-51
2023/06/13 04:07:47;;;;;;;0.40;0.40;;;15.80;99.90;;;;;;5030701;28;20030;-53
2023/06/13 04:10:12;;;;;;;0.30;0.30;;;15.70;99.90;;;;;;5030990;28;20360;-49
2023/06/13 04:12:38;;;;;;;0.30;0.30;;;15.80;99.90;;;;;;5030569;28;20499;-49
2023/06/13 04:15:06;;;;;;;0.22;0.22;;;15.70;99.90;;;;;;5030413;28;20026;-51
2023/06/13 04:17:32;;;;;;;1.38;0.45;;;15.70;99.90;;;;;;5030432;28;20034;-57
2023/06/13 04:19:58;;;;;;;0.30;0.30;;;15.60;99.90;;;;;;5023696;28;20065;-50
2023/06/13 04:22:24;;;;;;;0.75;0.68;;;15.60;99.90;;;;;;5027799;28;20103;-49
2023/06/13 04:24:50;;;;;;;0.95;0.45;;;15.60;99.90;;;;;;5022689;28;20026;-50
2023/06/13 04:27:19;;;;;;;0.40;0.40;;;15.50;99.90;;;;;;5016812;28;20109;-54
2023/06/13 04:29:47;;;;;;;0.63;0.60;;;15.50;99.90;;;;;;5022176;28;20022;-48
2023/06/13 04:32:17;;;;;;;0.50;0.30;;;15.50;99.90;;;;;;5017795;28;20083;-54
2023/06/13 04:34:52;;;;;;;;;;;15.60;99.90;;;;;;5027864;28;20061;-50
2023/06/13 04:37:23;;;;;;;0.35;0.35;;;15.60;99.90;;;;;;5012417;28;20377;-54
2023/06/13 04:39:51;;;;;;;0.45;0.45;;;15.70;99.90;;;;;;5020928;28;20443;-51
2023/06/13 04:42:24;;;;;;;0.25;0.25;;;15.70;99.90;;;;;;5027334;28;20389;-50
2023/06/13 04:44:52;;;;;;;0.40;0.40;;;15.70;99.90;;;;;;5029816;28;20090;-51
2023/06/13 04:47:18;;;;;;;0.25;0.25;;;15.80;99.90;;;;;;5029237;28;20021;-53
2023/06/13 04:49:45;;;;;;;0.55;0.55;;;15.80;99.90;;;;;;5026438;28;20455;-54
2023/06/13 04:52:14;;;;;;;0.30;0.30;;;15.90;99.90;;;;;;5022154;28;20026;-50
2023/06/13 04:54:40;;;;;;;0.20;0.20;;;16.00;99.90;;;;;;5023134;28;20053;-48
2023/06/13 04:57:05;;;;;;;0.20;0.20;;;16.40;99.90;;;;;;5020296;28;20077;-49
2023/06/13 04:59:31;;;;;;;0.43;0.43;;;16.80;99.90;;;;;;5025931;28;20030;-48
2023/06/13 05:01:57;;;;;;;0.30;0.30;;;17.30;99.90;;;;;;5028964;28;20064;-48
2023/06/13 05:04:22;;;;;;;0.28;0.28;;;17.70;99.90;;;;;;5015309;28;20033;-49
2023/06/13 05:06:49;;;;;;;0.30;0.30;;;18.00;99.90;;;;;;5014405;28;20391;-48
2023/06/13 05:09:16;;;;;;;0.40;0.40;;;18.30;99.90;;;;;;5029254;28;20484;-49
2023/06/13 05:11:42;;;;;;;0.50;0.47;;;18.50;99.90;;;;;;5034236;28;20120;-54
2023/06/13 05:14:08;;;;;;;0.43;0.43;;;18.60;99.90;;;;;;5034368;28;20659;-52
2023/06/13 05:16:34;;;;;;;1.67;0.60;;;18.50;99.90;;;;;;5034118;28;20022;-53
2023/06/13 05:19:00;;;;;;;0.35;0.35;;;18.40;99.90;;;;;;5033966;28;20120;-52
2023/06/13 05:21:31;;;;;;;0.32;0.32;;;18.20;99.90;;;;;;5032119;28;20029;-51
2023/06/13 05:23:57;;;;;;;0.52;0.50;;;18.00;99.90;;;;;;5031965;28;20069;-53
2023/06/13 05:26:23;;;;;;;0.50;0.40;;;17.90;99.90;;;;;;5016176;28;20104;-47
2023/06/13 05:28:49;;;;;;;0.98;0.73;;;17.70;99.90;;;;;;5012518;28;20049;-55
2023/06/13 05:31:15;;;;;;;0.40;0.35;;;17.50;99.90;;;;;;5012417;28;20046;-49
2023/06/13 05:33:40;;;;;;;1.15;1.05;;;17.50;99.90;;;;;;5012349;28;20026;-49
2023/06/13 05:36:06;;;;;;;0.32;0.30;;;17.50;99.90;;;;;;5013799;28;20113;-51
2023/06/13 05:38:32;;;;;;;0.38;0.28;;;17.50;99.90;;;;;;5013765;28;20456;-52
2023/06/13 05:40:58;;;;;;;0.65;0.55;;;17.60;99.90;;;;;;5023977;28;20044;-50
2023/06/13 05:43:24;;;;;;;0.60;0.60;;;17.70;99.90;;;;;;5026044;28;20042;-56
2023/06/13 05:45:49;;;;;;;0.65;0.65;;;17.90;99.90;;;;;;4996399;28;20108;-54
2023/06/13 05:48:15;;;;;;;0.32;0.32;;;18.10;99.90;;;;;;5013887;28;20022;-52
2023/06/13 05:50:41;;;;;;;0.85;0.55;;;18.60;99.90;;;;;;5013888;28;20156;-55
2023/06/13 05:53:07;;;;;;;0.60;0.40;;;19.10;99.90;;;;;;5013777;28;20498;-50
2023/06/13 05:55:33;;;;;;;0.60;0.47;;;19.80;99.90;;;;;;5013702;28;20026;-51
2023/06/13 05:57:58;;;;;;;0.47;0.30;;;20.70;99.90;;;;;;5013782;28;20041;-48
2023/06/13 06:00:24;;;;;;;0.40;0.40;;;21.50;99.90;;;;;;5013548;28;20041;-51
2023/06/13 06:02:50;;;;;;;0.30;0.30;;;22.20;99.90;;;;;;5013750;28;20040;-48
2023/06/13 06:05:16;;;;;;;0.57;0.50;;;23.00;99.90;;;;;;5012713;28;20022;-50
2023/06/13 06:07:43;;;;;;;0.60;0.55;;;23.60;99.90;;;;;;5019667;28;20018;-53
2023/06/13 06:10:09;;;;;;;0.63;0.63;;;24.10;99.90;;;;;;5033419;28;20029;-51
2023/06/13 06:12:35;;;;;;;0.40;0.40;;;24.60;99.90;;;;;;5033143;28;20040;-50
2023/06/13 06:15:01;;;;;;;0.55;0.45;;;25.00;99.90;;;;;;5033102;28;20033;-54
2023/06/13 06:17:27;;;;;;;0.60;0.50;;;25.50;99.90;;;;;;5033271;28;20034;-52
2023/06/13 06:19:53;;;;;;;0.68;0.60;;;25.80;99.90;;;;;;5032951;28;20052;-55
2023/06/13 06:22:18;;;;;;;0.52;0.50;;;26.10;99.90;;;;;;5032943;28;20021;-48
2023/06/13 06:24:45;;;;;;;2.15;1.13;;;26.50;99.20;;;;;;5033001;28;20040;-56
2023/06/13 06:27:13;;;;;;;0.70;0.60;;;26.80;98.80;;;;;;5029553;28;20018;-57
2023/06/13 06:29:39;;;;;;;;;;;27.10;98.60;;;;;;5019905;28;20470;-55
2023/06/13 06:32:06;;;;;;;0.95;0.73;;;27.20;96.80;;;;;;5029911;28;19952;-55
2023/06/13 06:34:32;;;;;;;0.70;0.70;;;27.60;96.10;;;;;;5017602;28;20033;-49
2023/06/13 06:36:58;;;;;;;1.92;0.88;;;27.70;93.40;;;;;;5012228;28;20029;-51
2023/06/13 06:39:24;;;;;;;0.57;0.57;;;27.90;93.40;;;;;;5016791;28;20110;-53
2023/06/13 06:41:49;;;;;;;2.15;1.05;;;28.10;92.40;;;;;;5018335;28;20519;-54
2023/06/13 06:44:15;;;;;;;0.63;0.63;;;28.20;91.60;;;;;;5024162;28;20042;-50
2023/06/13 06:46:41;;;;;;;1.15;0.77;;;28.40;92.90;;;;;;5024155;28;20129;-53
2023/06/13 06:49:07;;;;;;;0.90;0.90;;;28.50;91.80;;;;;;5023782;28;20036;-49
2023/06/13 06:51:33;;;;;;;1.25;0.82;;;28.60;89.10;;;;;;5019011;28;20028;-55
2023/06/13 06:53:59;;;;;;;0.68;0.65;;;28.60;87.80;;;;;;5024140;28;20025;-51
2023/06/13 06:56:25;;;;;;;0.52;0.50;;;28.70;90.60;;;;;;5019638;28;20069;-53
2023/06/13 06:58:51;;;;;;;1.85;0.90;;;28.90;90.00;;;;;;5026842;28;20030;-50
2023/06/13 07:01:18;;;;;;;0.70;0.63;;;29.00;89.60;;;;;;5013409;28;20116;-53
2023/06/13 07:03:44;;;;;;;1.33;0.80;;;29.10;88.30;;;;;;5017291;28;20395;-52
2023/06/13 07:06:11;;;;;;;0.73;0.60;;;29.30;87.50;;;;;;5024685;28;20049;-51
2023/06/13 07:08:37;;;;;;;1.38;1.20;;;29.50;87.30;;;;;;5006780;28;20435;-55
2023/06/13 07:11:03;;;;;;;0.57;0.57;;;29.60;86.60;;;;;;5027132;28;20108;-52
2023/06/13 07:13:28;;;;;;;1.23;0.70;;;29.60;86.80;;;;;;5019077;28;20388;-58
2023/06/13 07:15:54;;;;;;;0.93;0.80;;;29.70;86.00;;;;;;5026197;28;20038;-55
2023/06/13 07:18:19;;;;;;;1.25;0.82;;;30.00;85.80;;;;;;5030261;28;20105;-50
2023/06/13 07:20:45;;;;;;;0.98;0.73;;;30.20;87.20;;;;;;5030077;28;20057;-54
2023/06/13 07:23:12;;;;;;;1.10;0.88;;;30.30;81.10;;;;;;5010771;28;20463;-54
2023/06/13 07:25:40;;;;;;;1.20;1.00;;;30.50;83.50;;;;;;5030278;28;20060;-56
2023/06/13 07:28:07;;;;;;;0.68;0.60;;;30.70;82.80;;;;;;5028553;28;20473;-54
2023/06/13 07:30:32;;;;;;;0.75;0.70;;;30.90;82.00;;;;;;5029950;28;20436;-57
2023/06/13 07:32:58;;;;;;;0.70;0.70;;;31.00;81.40;;;;;;5028398;28;20021;-54
2023/06/13 07:35:24;;;;;;;1.52;0.95;;;31.00;78.50;;;;;;5030041;28;20395;-52
2023/06/13 07:37:50;;;;;;;1.38;0.90;;;31.30;78.40;;;;;;5029901;28;20022;-53
2023/06/13 07:40:17;;;;;;;1.55;1.00;;;31.40;80.50;;;;;;5029580;28;20038;-54
2023/06/13 07:42:42;;;;;;;1.20;1.00;;;31.70;78.30;;;;;;5027930;28;20018;-51
2023/06/13 07:45:08;;;;;;;1.40;0.93;;;31.80;78.60;;;;;;5001049;28;20404;-51
2023/06/13 07:47:35;;;;;;;1.38;1.10;;;31.60;76.90;;;;;;5017002;28;20022;-53
2023/06/13 07:50:01;;;;;;;0.93;0.80;;;31.80;76.90;;;;;;5027610;28;20524;-53
2023/06/13 07:52:27;;;;;;;1.13;0.95;;;31.80;75.80;;;;;;5028508;28;20025;-50
2023/06/13 07:54:52;;;;;;;0.90;0.80;;;32.00;79.60;;;;;;5009357;28;20084;-51
2023/06/13 07:57:18;;;;;;;1.00;0.90;;;32.20;77.00;;;;;;5026988;28;20079;-50
2023/06/13 07:59:44;;;;;;;1.13;0.82;;;32.40;77.00;;;;;;5028588;28;20059;-49
2023/06/13 08:02:10;;;;;;;1.45;1.10;;;32.40;73.40;;;;;;5027820;28;20112;-55
2023/06/13 08:04:36;;;;;;;1.90;1.23;;;32.40;72.80;;;;;;5017376;28;20025;-50
2023/06/13 08:07:01;;;;;;;1.30;1.10;;;32.70;75.60;;;;;;5016318;28;20145;-46
2023/06/13 08:09:27;;;;;;;1.10;1.00;;;32.60;72.40;;;;;;5030281;28;20037;-49
2023/06/13 08:11:53;;;;;;;0.90;0.82;;;32.70;74.30;;;;;;5030813;28;20029;-52
2023/06/13 08:14:18;;;;;;;1.05;0.90;;;32.90;69.70;;;;;;5019868;28;20037;-51
2023/06/13 08:16:44;;;;;;;0.82;0.82;;;33.10;72.50;;;;;;5016348;28;20024;-47
2023/06/13 08:19:10;;;;;;;1.65;1.20;;;33.10;73.10;;;;;;5014059;28;20033;-55
2023/06/13 08:21:35;;;;;;;1.50;0.93;;;33.30;71.90;;;;;;5017104;28;20116;-49
2023/06/13 08:24:05;;;;;;;1.02;0.90;;;33.50;72.10;;;;;;5016687;28;20693;-47
2023/06/13 08:26:34;;;;;;;1.20;0.90;;;33.70;72.80;;;;;;5024050;28;20025;-49
2023/06/13 08:29:01;;;;;;;0.70;0.70;;;33.90;72.10;;;;;;5025874;28;20472;-57
2023/06/13 08:31:27;;;;;;;1.60;1.20;;;33.90;69.60;;;;;;5024022;28;20248;-50
2023/06/13 08:33:55;;;;;;;2.10;1.10;;;33.90;69.80;;;;;;5028105;28;20441;-50
2023/06/13 08:36:21;;;;;;;1.77;1.10;;;33.90;68.70;;;;;;5024660;28;20513;-48
2023/06/13 08:38:47;;;;;;;1.08;0.85;;;33.90;69.60;;;;;;5027801;28;20045;-49
2023/06/13 08:41:14;;;;;;;1.25;0.93;;;34.00;70.80;;;;;;5026368;28;20029;-47
2023/06/13 08:43:41;;;;;;;1.85;1.25;;;34.10;68.40;;;;;;5025756;28;20451;-51
2023/06/13 08:46:07;;;;;;;1.65;1.10;;;34.20;66.50;;;;;;5025824;28;20033;-47
2023/06/13 08:48:33;;;;;;;0.77;0.77;;;34.40;67.80;;;;;;5022913;28;20079;-47
2023/06/13 08:51:04;;;;;;;1.27;1.17;;;34.20;67.00;;;;;;5025707;28;20472;-47
2023/06/13 08:53:32;;;;;;;1.02;0.88;;;34.30;68.30;;;;;;5022877;28;20076;-47
2023/06/13 08:56:04;;;;;;;2.10;1.02;;;34.30;67.00;;;;;;5025716;28;20053;-47
2023/06/13 08:58:33;;;;;;;1.42;1.05;;;34.40;66.70;;;;;;5022677;28;20013;-51
2023/06/13 09:01:00;;;;;;;1.05;0.95;;;34.40;69.70;;;;;;5027309;28;20021;-50
2023/06/13 09:03:28;;;;;;;2.90;1.30;;;34.50;64.50;;;;;;5025352;28;20022;-50
2023/06/13 09:05:55;;;;;;;1.35;1.17;;;34.50;65.80;;;;;;5027045;28;20469;-47
2023/06/13 09:08:22;;;;;;;2.03;1.20;;;34.50;65.70;;;;;;5027354;28;20532;-51
2023/06/13 09:10:49;;;;;;;1.15;0.90;;;34.70;66.20;;;;;;5030536;28;20481;-47
2023/06/13 09:13:16;;;;;;;1.23;1.08;;;34.90;67.10;;;;;;5019302;28;20036;-51
2023/06/13 09:15:43;;;;;;;5.30;1.38;;;34.50;62.80;;;;;;5030713;28;20029;-54
2023/06/13 09:18:10;;;;;;;1.50;1.10;;;34.80;67.20;;;;;;5030234;28;20369;-50
2023/06/13 09:20:35;;;;;;;1.42;0.98;;;34.80;66.50;;;;;;5030335;28;20136;-55
2023/06/13 09:23:02;;;;;;;2.00;1.42;;;35.00;64.50;;;;;;5030293;28;20104;-53
2023/06/13 09:25:30;;;;;;;1.38;1.05;;;35.00;63.40;;;;;;5030333;28;20037;-52
2023/06/13 09:27:55;;;;;;;;;;;34.90;64.30;;;;;;5030447;28;20117;-53
2023/06/13 09:30:21;;;;;;;1.10;1.00;;;35.10;64.90;;;;;;5030272;28;19949;-49
2023/06/13 09:32:51;;;;;;;1.45;1.10;;;35.30;63.40;;;;;;5030321;28;20036;-52
2023/06/13 09:35:17;;;;;;;1.58;1.30;;;35.30;62.90;;;;;;5030133;28;20024;-49
2023/06/13 09:37:44;;;;;;;1.50;1.10;;;35.00;60.10;;;;;;5030171;28;20025;-50
2023/06/13 09:40:11;;;;;;;1.30;0.90;;;34.80;64.00;;;;;;5030403;28;20053;-50
2023/06/13 09:42:37;;;;;;;1.13;1.02;;;34.90;64.00;;;;;;5033672;28;20529;-54
2023/06/13 09:45:08;;;;;;;1.15;0.80;;;35.00;64.40;;;;;;5034008;28;20116;-52
2023/06/13 09:47:34;;;;;;;1.33;1.10;;;35.30;63.30;;;;;;5034013;28;20029;-49
2023/06/13 09:50:01;;;;;;;2.42;1.20;;;35.20;62.50;;;;;;5033596;28;20104;-48
2023/06/13 09:52:30;;;;;;;1.08;0.90;;;35.00;61.80;;;;;;5033898;28;20022;-53
2023/06/13 09:54:57;;;;;;;1.30;0.90;;;35.00;65.40;;;;;;5033676;28;20056;-53
2023/06/13 09:57:23;;;;;;;2.00;0.95;;;34.80;59.80;;;;;;5033509;28;20512;-47
2023/06/13 09:59:50;;;;;;;1.67;1.30;;;34.50;61.40;;;;;;5033588;28;20045;-46
2023/06/13 10:02:17;;;;;;;2.15;1.30;;;34.30;59.90;;;;;;5033603;28;20028;-50
2023/06/13 10:04:43;;;;;;;1.35;1.20;;;34.30;64.10;;;;;;5033630;28;20021;-53
2023/06/13 10:07:11;;;;;;;2.05;1.23;;;34.20;62.80;;;;;;5033288;28;20045;-46
2023/06/13 10:09:38;;;;;;;1.52;1.10;;;34.30;62.60;;;;;;5033409;28;20032;-48
2023/06/13 10:12:14;;;;;;;1.73;1.10;;;34.70;64.60;;;;;;5032984;28;20032;-46
2023/06/13 10:14:42;;;;;;;1.10;1.00;;;34.70;62.50;;;;;;5033285;28;20017;-54
2023/06/13 10:17:12;;;;;;;1.70;1.13;;;34.40;63.70;;;;;;5033196;28;20384;-50
2023/06/13 10:19:39;;;;;;;1.13;1.02;;;34.50;60.60;;;;;;5033015;28;20060;-51
2023/06/13 10:22:06;;;;;;;1.10;0.90;;;34.80;64.50;;;;;;5033239;28;20112;-46
2023/06/13 10:24:35;;;;;;;1.25;1.15;;;35.00;60.40;;;;;;5033052;28;20464;-50
2023/06/13 10:27:03;;;;;;;1.00;0.90;;;34.10;58.50;;;;;;5033088;28;20460;-50
2023/06/13 10:29:56;;;;;;;1.17;1.00;;;34.00;63.70;;;;;;5032981;28;20033;-50
2023/06/13 10:32:33;;;;;;;1.65;1.40;;;34.00;60.20;;;;;;5032836;28;20545;-47
2023/06/13 10:35:08;;;;;;;1.23;1.00;;;34.20;60.70;;;;;;5033057;28;20092;-46
2023/06/13 10:38:14;;;;;;;1.23;0.90;;;33.90;60.20;;;;;;5032925;28;20557;-52
2023/06/13 10:40:45;;;;;;;1.38;1.02;;;33.60;62.10;;;;;;5018630;28;20080;-49
2023/06/13 10:43:38;;;;;;;1.27;1.13;;;33.50;61.60;;;;;;5032246;28;20064;-52
2023/06/13 10:46:06;;;;;;;1.13;0.95;;;33.40;60.90;;;;;;5032791;28;20033;-53
2023/06/13 10:48:42;;;;;;;0.90;0.75;;;33.50;65.20;;;;;;5032644;28;20032;-56
2023/06/13 10:51:09;;;;;;;1.25;1.00;;;33.50;65.10;;;;;;5032192;28;20037;-54
2023/06/13 10:53:37;;;;;;;1.92;1.10;;;33.90;64.40;;;;;;5032710;28;20026;-52
2023/06/13 10:56:07;;;;;;;1.33;1.10;;;34.30;61.90;;;;;;5032528;28;20073;-47
2023/06/13 10:58:34;;;;;;;2.05;1.40;;;34.30;59.50;;;;;;5032609;28;20026;-47
2023/06/13 11:01:25;;;;;;;1.10;0.93;;;33.80;61.20;;;;;;5032387;28;20033;-49
2023/06/13 11:03:51;;;;;;;1.45;1.30;;;34.10;63.10;;;;;;5032371;28;20030;-48
2023/06/13 11:06:17;;;;;;;1.20;1.10;;;33.60;63.50;;;;;;5032437;28;20025;-47
2023/06/13 11:08:42;;;;;;;1.25;1.08;;;33.40;60.70;;;;;;5032402;28;20030;-54
2023/06/13 11:11:09;;;;;;;1.27;1.02;;;33.50;62.50;;;;;;5031985;28;20065;-47
2023/06/13 11:13:35;;;;;;;1.35;1.00;;;33.80;62.20;;;;;;5032187;28;20018;-45
2023/06/13 11:16:35;;;;;;;0.88;0.85;;;33.90;60.80;;;;;;5031891;28;20088;-52
2023/06/13 11:19:11;;;;;;;1.17;1.00;;;33.60;62.00;;;;;;5032114;28;20029;-53
2023/06/13 11:21:44;;;;;;;1.10;1.00;;;34.10;64.00;;;;;;5032045;28;20018;-50
2023/06/13 11:24:14;;;;;;;2.63;1.33;;;34.30;64.20;;;;;;5032103;28;20068;-47
2023/06/13 11:26:44;;;;;;;0.77;0.75;;;34.30;63.30;;;;;;5031905;28;20476;-54
2023/06/13 11:29:11;;;;;;;1.42;1.13;;;34.60;63.10;;;;;;5031946;28;20014;-46
2023/06/13 11:31:40;;;;;;;1.05;0.90;;;34.80;62.60;;;;;;5031931;28;20025;-49
2023/06/13 11:34:15;;;;;;;1.58;1.20;;;34.90;61.80;;;;;;5031696;28;20030;-48
2023/06/13 11:36:44;;;;;;;1.38;1.10;;;34.60;61.20;;;;;;5031556;28;20029;-49
2023/06/13 11:39:22;;;;;;;1.08;0.98;;;34.80;61.50;;;;;;5031750;28;20033;-48
2023/06/13 11:41:48;;;;;;;1.52;1.08;;;34.90;59.50;;;;;;5031603;28;20403;-46
2023/06/13 11:44:14;;;;;;;1.38;1.08;;;34.60;59.30;;;;;;5030893;28;20021;-46
2023/06/13 11:46:43;;;;;;;1.25;1.05;;;34.20;59.20;;;;;;5031362;28;20037;-46
2023/06/13 11:49:13;;;;;;;1.48;1.35;;;33.80;58.60;;;;;;5031677;28;20024;-46
2023/06/13 11:51:39;;;;;;;1.48;1.20;;;34.00;60.60;;;;;;5031375;28;20033;-52
2023/06/13 11:54:05;;;;;;;1.25;0.98;;;34.00;60.10;;;;;;5031790;28;20031;-47
2023/06/13 11:56:34;;;;;;;1.50;0.98;;;34.20;59.10;;;;;;5031362;28;20050;-50
2023/06/13 11:59:00;;;;;;;1.23;0.93;;;34.30;57.10;;;;;;5031142;28;20496;-46
2023/06/13 12:01:26;;;;;;;1.25;1.00;;;34.10;57.90;;;;;;5031531;28;20032;-49
2023/06/13 12:03:55;;;;;;;1.60;1.00;;;34.10;58.90;;;;;;5030480;28;20029;-51
2023/06/13 12:06:22;;;;;;;2.08;1.20;;;33.80;56.50;;;;;;5031508;28;20060;-51
2023/06/13 12:08:49;;;;;;;1.35;0.98;;;33.30;57.70;;;;;;5031362;28;20041;-46
2023/06/13 12:11:17;;;;;;;1.10;1.00;;;33.10;56.90;;;;;;5013733;28;20476;-46
2023/06/13 12:13:55;;;;;;;1.13;0.90;;;33.00;59.70;;;;;;5031094;28;20075;-52
2023/06/13 12:16:23;;;;;;;1.85;1.23;;;33.00;59.10;;;;;;5030918;28;20029;-49
2023/06/13 12:18:53;;;;;;;0.90;0.80;;;32.50;58.80;;;;;;5031231;28;20033;-46
2023/06/13 12:21:24;;;;;;;1.10;1.00;;;32.50;59.30;;;;;;5031070;28;20266;-53
2023/06/13 12:23:50;;;;;;;1.20;1.00;;;32.60;58.00;;;;;;5031202;28;20025;-50
2023/06/13 12:26:17;;;;;;;1.17;0.95;;;32.50;58.30;;;;;;5030808;28;20022;-49
2023/06/13 12:28:44;;;;;;;1.05;0.90;;;32.70;61.80;;;;;;5031033;28;20083;-55
2023/06/13 12:31:10;;;;;;;1.20;0.98;;;32.50;58.10;;;;;;5030808;28;20555;-47
2023/06/13 12:33:36;;;;;;;1.40;1.00;;;32.50;58.80;;;;;;5030946;28;20029;-48
2023/06/13 12:36:06;;;;;;;0.98;0.80;;;32.50;57.90;;;;;;5030776;28;20021;-50
2023/06/13 12:38:32;;;;;;;1.73;1.27;;;32.60;59.70;;;;;;5030509;28;20480;-49
2023/06/13 12:40:58;;;;;;;1.23;0.85;;;32.70;60.30;;;;;;5030691;28;20045;-48
2023/06/13 12:43:29;;;;;;;1.10;1.00;;;32.40;59.80;;;;;;5011602;28;20582;-48
2023/06/13 12:45:57;;;;;;;0.80;0.77;;;32.50;59.20;;;;;;5030032;28;20029;-50
2023/06/13 12:48:23;;;;;;;1.17;1.00;;;32.60;60.40;;;;;;5029964;28;20022;-45
2023/06/13 12:50:49;;;;;;;2.15;1.08;;;32.70;60.90;;;;;;5018068;28;20024;-53